sensor_id;sensor_type;location;lat;lon;timestamp;P1;durP1;ratioP1;P2;durP2;ratioP2
65202;SDS011;51788;45.124;38.966;2023-04-24T00:00:28;7.55;;;4.90;;
65202;SDS011;51788;45.124;38.966;2023-04-24T00:02:55;7.50;;;4.85;;
65202;SDS011;51788;45.124;38.966;2023-04-24T00:05:22;5.03;;;4.50;;
65202;SDS011;51788;45.124;38.966;2023-04-24T00:07:48;5.20;;;4.70;;
65202;SDS011;51788;45.124;38.966;2023-04-24T00:10:14;7.85;;;4.95;;
65202;SDS011;51788;45.124;38.966;2023-04-24T00:12:40;7.85;;;4.90;;
65202;SDS011;51788;45.124;38.966;2023-04-24T00:15:06;4.80;;;4.40;;
65202;SDS011;51788;45.124;38.966;2023-04-24T00:17:32;4.85;;;4.45;;
65202;SDS011;51788;45.124;38.966;2023-04-24T00:19:58;5.85;;;5.18;;
65202;SDS011;51788;45.124;38.966;2023-04-24T00:22:25;5.20;;;4.45;;
65202;SDS011;51788;45.124;38.966;2023-04-24T00:24:51;8.75;;;4.13;;
65202;SDS011;51788;45.124;38.966;2023-04-24T00:27:17;4.55;;;4.15;;
65202;SDS011;51788;45.124;38.966;2023-04-24T00:29:43;7.40;;;5.13;;
65202;SDS011;51788;45.124;38.966;2023-04-24T00:32:09;5.53;;;4.00;;
65202;SDS011;51788;45.124;38.966;2023-04-24T00:34:35;5.88;;;4.90;;
65202;SDS011;51788;45.124;38.966;2023-04-24T00:37:01;5.88;;;4.05;;
65202;SDS011;51788;45.124;38.966;2023-04-24T00:39:27;5.93;;;4.57;;
65202;SDS011;51788;45.124;38.966;2023-04-24T00:41:53;4.38;;;3.92;;
65202;SDS011;51788;45.124;38.966;2023-04-24T00:44:20;7.15;;;4.50;;
65202;SDS011;51788;45.124;38.966;2023-04-24T00:46:46;6.70;;;4.75;;
65202;SDS011;51788;45.124;38.966;2023-04-24T00:49:20;6.70;;;5.30;;
65202;SDS011;51788;45.124;38.966;2023-04-24T00:51:47;7.32;;;4.82;;
65202;SDS011;51788;45.124;38.966;2023-04-24T00:54:15;7.90;;;4.88;;
65202;SDS011;51788;45.124;38.966;2023-04-24T00:56:41;8.05;;;5.20;;
65202;SDS011;51788;45.124;38.966;2023-04-24T00:59:09;8.25;;;5.05;;
65202;SDS011;51788;45.124;38.966;2023-04-24T01:01:35;8.52;;;5.45;;
65202;SDS011;51788;45.124;38.966;2023-04-24T01:04:02;4.97;;;4.57;;
65202;SDS011;51788;45.124;38.966;2023-04-24T01:06:29;7.35;;;5.47;;
65202;SDS011;51788;45.124;38.966;2023-04-24T01:08:57;6.78;;;5.18;;
65202;SDS011;51788;45.124;38.966;2023-04-24T01:11:24;11.68;;;5.13;;
65202;SDS011;51788;45.124;38.966;2023-04-24T01:13:50;5.38;;;4.90;;
65202;SDS011;51788;45.124;38.966;2023-04-24T01:16:17;4.90;;;4.15;;
65202;SDS011;51788;45.124;38.966;2023-04-24T01:18:46;7.82;;;5.28;;
65202;SDS011;51788;45.124;38.966;2023-04-24T01:21:15;4.93;;;4.53;;
65202;SDS011;51788;45.124;38.966;2023-04-24T01:23:44;5.85;;;5.03;;
65202;SDS011;51788;45.124;38.966;2023-04-24T01:26:12;9.32;;;5.00;;
65202;SDS011;51788;45.124;38.966;2023-04-24T01:28:39;6.82;;;5.00;;
65202;SDS011;51788;45.124;38.966;2023-04-24T01:31:05;16.45;;;6.70;;
65202;SDS011;51788;45.124;38.966;2023-04-24T01:33:31;6.35;;;5.57;;
65202;SDS011;51788;45.124;38.966;2023-04-24T01:35:57;6.32;;;5.50;;
65202;SDS011;51788;45.124;38.966;2023-04-24T01:38:23;6.90;;;5.90;;
65202;SDS011;51788;45.124;38.966;2023-04-24T01:40:50;7.68;;;6.25;;
65202;SDS011;51788;45.124;38.966;2023-04-24T01:43:16;6.15;;;5.55;;
65202;SDS011;51788;45.124;38.966;2023-04-24T01:45:43;6.20;;;5.68;;
65202;SDS011;51788;45.124;38.966;2023-04-24T01:48:10;6.80;;;5.75;;
65202;SDS011;51788;45.124;38.966;2023-04-24T01:50:37;8.43;;;6.07;;
65202;SDS011;51788;45.124;38.966;2023-04-24T01:53:03;6.00;;;5.40;;
65202;SDS011;51788;45.124;38.966;2023-04-24T01:55:30;5.30;;;4.80;;
65202;SDS011;51788;45.124;38.966;2023-04-24T01:57:56;9.43;;;5.78;;
65202;SDS011;51788;45.124;38.966;2023-04-24T02:00:23;6.57;;;5.97;;
65202;SDS011;51788;45.124;38.966;2023-04-24T02:02:51;9.43;;;5.55;;
65202;SDS011;51788;45.124;38.966;2023-04-24T02:05:17;7.95;;;5.28;;
65202;SDS011;51788;45.124;38.966;2023-04-24T02:07:43;5.70;;;5.18;;
65202;SDS011;51788;45.124;38.966;2023-04-24T02:10:09;6.90;;;5.60;;
65202;SDS011;51788;45.124;38.966;2023-04-24T02:12:35;9.18;;;5.35;;
65202;SDS011;51788;45.124;38.966;2023-04-24T02:15:01;9.32;;;5.70;;
65202;SDS011;51788;45.124;38.966;2023-04-24T02:17:28;9.07;;;5.60;;
65202;SDS011;51788;45.124;38.966;2023-04-24T02:19:56;8.52;;;5.35;;
65202;SDS011;51788;45.124;38.966;2023-04-24T02:22:22;5.95;;;5.10;;
65202;SDS011;51788;45.124;38.966;2023-04-24T02:24:48;7.88;;;5.72;;
65202;SDS011;51788;45.124;38.966;2023-04-24T02:27:14;4.95;;;4.45;;
65202;SDS011;51788;45.124;38.966;2023-04-24T02:29:40;13.27;;;6.25;;
65202;SDS011;51788;45.124;38.966;2023-04-24T02:32:06;5.60;;;5.10;;
65202;SDS011;51788;45.124;38.966;2023-04-24T02:34:36;8.98;;;5.70;;
65202;SDS011;51788;45.124;38.966;2023-04-24T02:37:02;9.65;;;6.85;;
65202;SDS011;51788;45.124;38.966;2023-04-24T02:39:28;6.65;;;5.43;;
65202;SDS011;51788;45.124;38.966;2023-04-24T02:41:54;12.65;;;6.25;;
65202;SDS011;51788;45.124;38.966;2023-04-24T02:44:20;8.95;;;6.35;;
65202;SDS011;51788;45.124;38.966;2023-04-24T02:46:48;6.95;;;6.25;;
65202;SDS011;51788;45.124;38.966;2023-04-24T02:49:15;5.38;;;4.63;;
65202;SDS011;51788;45.124;38.966;2023-04-24T02:51:41;13.80;;;5.60;;
65202;SDS011;51788;45.124;38.966;2023-04-24T02:54:08;6.90;;;5.93;;
65202;SDS011;51788;45.124;38.966;2023-04-24T02:56:35;16.17;;;6.47;;
65202;SDS011;51788;45.124;38.966;2023-04-24T02:59:02;10.30;;;5.70;;
65202;SDS011;51788;45.124;38.966;2023-04-24T03:01:28;4.93;;;4.45;;
65202;SDS011;51788;45.124;38.966;2023-04-24T03:03:54;12.60;;;4.93;;
65202;SDS011;51788;45.124;38.966;2023-04-24T03:06:20;9.35;;;5.05;;
65202;SDS011;51788;45.124;38.966;2023-04-24T03:08:46;8.00;;;5.80;;
65202;SDS011;51788;45.124;38.966;2023-04-24T03:11:12;8.48;;;5.30;;
65202;SDS011;51788;45.124;38.966;2023-04-24T03:13:40;12.65;;;6.93;;
65202;SDS011;51788;45.124;38.966;2023-04-24T03:16:06;7.97;;;5.80;;
65202;SDS011;51788;45.124;38.966;2023-04-24T03:18:32;7.95;;;6.72;;
65202;SDS011;51788;45.124;38.966;2023-04-24T03:20:59;7.90;;;4.75;;
65202;SDS011;51788;45.124;38.966;2023-04-24T03:23:26;6.68;;;5.47;;
65202;SDS011;51788;45.124;38.966;2023-04-24T03:25:52;29.08;;;6.35;;
65202;SDS011;51788;45.124;38.966;2023-04-24T03:28:20;14.00;;;7.07;;
65202;SDS011;51788;45.124;38.966;2023-04-24T03:30:55;13.50;;;6.32;;
65202;SDS011;51788;45.124;38.966;2023-04-24T03:33:23;14.27;;;6.13;;
65202;SDS011;51788;45.124;38.966;2023-04-24T03:36:00;6.95;;;6.35;;
65202;SDS011;51788;45.124;38.966;2023-04-24T03:38:33;16.52;;;7.57;;
65202;SDS011;51788;45.124;38.966;2023-04-24T03:41:07;8.27;;;6.35;;
65202;SDS011;51788;45.124;38.966;2023-04-24T03:44:00;15.77;;;6.60;;
65202;SDS011;51788;45.124;38.966;2023-04-24T03:46:26;19.70;;;7.88;;
65202;SDS011;51788;45.124;38.966;2023-04-24T03:48:56;16.95;;;7.15;;
65202;SDS011;51788;45.124;38.966;2023-04-24T03:51:26;7.05;;;6.40;;
65202;SDS011;51788;45.124;38.966;2023-04-24T03:53:57;8.20;;;6.55;;
65202;SDS011;51788;45.124;38.966;2023-04-24T03:56:26;8.43;;;7.03;;
65202;SDS011;51788;45.124;38.966;2023-04-24T03:58:52;11.40;;;5.95;;
65202;SDS011;51788;45.124;38.966;2023-04-24T04:01:18;13.93;;;6.95;;
65202;SDS011;51788;45.124;38.966;2023-04-24T04:03:52;8.50;;;6.50;;
65202;SDS011;51788;45.124;38.966;2023-04-24T04:06:22;26.27;;;7.55;;
65202;SDS011;51788;45.124;38.966;2023-04-24T04:08:50;10.38;;;6.88;;
65202;SDS011;51788;45.124;38.966;2023-04-24T04:11:15;15.40;;;6.32;;
65202;SDS011;51788;45.124;38.966;2023-04-24T04:13:43;7.88;;;6.50;;
65202;SDS011;51788;45.124;38.966;2023-04-24T04:16:11;15.07;;;6.82;;
65202;SDS011;51788;45.124;38.966;2023-04-24T04:18:37;12.40;;;7.13;;
65202;SDS011;51788;45.124;38.966;2023-04-24T04:21:05;15.57;;;6.85;;
65202;SDS011;51788;45.124;38.966;2023-04-24T04:23:31;9.73;;;6.38;;
65202;SDS011;51788;45.124;38.966;2023-04-24T04:26:10;9.68;;;6.93;;
65202;SDS011;51788;45.124;38.966;2023-04-24T04:29:04;25.50;;;8.27;;
65202;SDS011;51788;45.124;38.966;2023-04-24T04:31:34;18.05;;;6.50;;
65202;SDS011;51788;45.124;38.966;2023-04-24T04:34:06;33.10;;;6.75;;
65202;SDS011;51788;45.124;38.966;2023-04-24T04:36:34;13.60;;;7.20;;
65202;SDS011;51788;45.124;38.966;2023-04-24T04:39:13;11.18;;;6.72;;
65202;SDS011;51788;45.124;38.966;2023-04-24T04:41:51;13.25;;;6.43;;
65202;SDS011;51788;45.124;38.966;2023-04-24T04:44:20;35.92;;;7.80;;
65202;SDS011;51788;45.124;38.966;2023-04-24T04:46:46;25.45;;;8.57;;
65202;SDS011;51788;45.124;38.966;2023-04-24T04:49:20;13.18;;;7.35;;
65202;SDS011;51788;45.124;38.966;2023-04-24T04:51:47;6.80;;;6.03;;
65202;SDS011;51788;45.124;38.966;2023-04-24T04:54:14;10.48;;;7.30;;
65202;SDS011;51788;45.124;38.966;2023-04-24T04:56:41;12.20;;;7.43;;
65202;SDS011;51788;45.124;38.966;2023-04-24T04:59:07;12.02;;;6.90;;
65202;SDS011;51788;45.124;38.966;2023-04-24T05:01:36;24.98;;;6.75;;
65202;SDS011;51788;45.124;38.966;2023-04-24T05:04:02;13.95;;;7.28;;
65202;SDS011;51788;45.124;38.966;2023-04-24T05:06:28;9.55;;;6.45;;
65202;SDS011;51788;45.124;38.966;2023-04-24T05:08:56;25.23;;;7.60;;
65202;SDS011;51788;45.124;38.966;2023-04-24T05:11:35;32.05;;;7.80;;
65202;SDS011;51788;45.124;38.966;2023-04-24T05:14:01;21.90;;;7.43;;
65202;SDS011;51788;45.124;38.966;2023-04-24T05:16:38;8.57;;;6.30;;
65202;SDS011;51788;45.124;38.966;2023-04-24T05:19:07;9.05;;;7.38;;
65202;SDS011;51788;45.124;38.966;2023-04-24T05:21:37;10.52;;;7.40;;
65202;SDS011;51788;45.124;38.966;2023-04-24T05:24:05;19.05;;;8.80;;
65202;SDS011;51788;45.124;38.966;2023-04-24T05:26:49;18.90;;;7.95;;
65202;SDS011;51788;45.124;38.966;2023-04-24T05:29:19;27.00;;;7.68;;
65202;SDS011;51788;45.124;38.966;2023-04-24T05:31:46;16.20;;;7.25;;
65202;SDS011;51788;45.124;38.966;2023-04-24T05:34:12;13.88;;;6.88;;
65202;SDS011;51788;45.124;38.966;2023-04-24T05:36:42;26.27;;;8.52;;
65202;SDS011;51788;45.124;38.966;2023-04-24T05:39:08;15.77;;;7.95;;
65202;SDS011;51788;45.124;38.966;2023-04-24T05:41:34;23.40;;;8.43;;
65202;SDS011;51788;45.124;38.966;2023-04-24T05:44:00;10.90;;;7.82;;
65202;SDS011;51788;45.124;38.966;2023-04-24T05:46:26;19.08;;;8.35;;
65202;SDS011;51788;45.124;38.966;2023-04-24T05:48:54;23.02;;;8.65;;
65202;SDS011;51788;45.124;38.966;2023-04-24T05:51:20;20.13;;;7.82;;
65202;SDS011;51788;45.124;38.966;2023-04-24T05:53:47;23.00;;;7.85;;
65202;SDS011;51788;45.124;38.966;2023-04-24T05:56:14;14.07;;;7.47;;
65202;SDS011;51788;45.124;38.966;2023-04-24T05:58:41;13.20;;;7.32;;
65202;SDS011;51788;45.124;38.966;2023-04-24T06:01:08;15.95;;;8.02;;
65202;SDS011;51788;45.124;38.966;2023-04-24T06:03:35;12.32;;;7.32;;
65202;SDS011;51788;45.124;38.966;2023-04-24T06:06:02;13.57;;;8.48;;
65202;SDS011;51788;45.124;38.966;2023-04-24T06:08:29;16.15;;;7.97;;
65202;SDS011;51788;45.124;38.966;2023-04-24T06:10:55;19.60;;;7.65;;
65202;SDS011;51788;45.124;38.966;2023-04-24T06:13:21;26.45;;;8.18;;
65202;SDS011;51788;45.124;38.966;2023-04-24T06:16:10;13.93;;;8.10;;
65202;SDS011;51788;45.124;38.966;2023-04-24T06:18:39;16.15;;;8.77;;
65202;SDS011;51788;45.124;38.966;2023-04-24T06:21:05;11.13;;;7.40;;
65202;SDS011;51788;45.124;38.966;2023-04-24T06:23:31;10.52;;;6.93;;
65202;SDS011;51788;45.124;38.966;2023-04-24T06:25:58;22.70;;;10.90;;
65202;SDS011;51788;45.124;38.966;2023-04-24T06:28:26;16.10;;;12.30;;
65202;SDS011;51788;45.124;38.966;2023-04-24T06:30:52;16.30;;;13.32;;
65202;SDS011;51788;45.124;38.966;2023-04-24T06:33:18;25.45;;;13.55;;
65202;SDS011;51788;45.124;38.966;2023-04-24T06:35:44;24.70;;;11.05;;
65202;SDS011;51788;45.124;38.966;2023-04-24T06:38:10;12.20;;;8.68;;
65202;SDS011;51788;45.124;38.966;2023-04-24T06:40:36;22.45;;;8.40;;
65202;SDS011;51788;45.124;38.966;2023-04-24T06:43:02;15.88;;;7.20;;
65202;SDS011;51788;45.124;38.966;2023-04-24T06:45:28;10.95;;;8.45;;
65202;SDS011;51788;45.124;38.966;2023-04-24T06:47:55;13.40;;;6.88;;
65202;SDS011;51788;45.124;38.966;2023-04-24T06:50:21;13.57;;;6.80;;
65202;SDS011;51788;45.124;38.966;2023-04-24T06:52:47;6.00;;;5.28;;
65202;SDS011;51788;45.124;38.966;2023-04-24T06:55:13;8.82;;;5.82;;
65202;SDS011;51788;45.124;38.966;2023-04-24T06:57:42;17.88;;;6.00;;
65202;SDS011;51788;45.124;38.966;2023-04-24T07:00:09;11.07;;;5.65;;
65202;SDS011;51788;45.124;38.966;2023-04-24T07:02:35;12.40;;;6.05;;
65202;SDS011;51788;45.124;38.966;2023-04-24T07:05:03;8.48;;;5.97;;
65202;SDS011;51788;45.124;38.966;2023-04-24T07:07:29;14.73;;;7.60;;
65202;SDS011;51788;45.124;38.966;2023-04-24T07:09:56;14.25;;;9.20;;
65202;SDS011;51788;45.124;38.966;2023-04-24T07:12:23;12.02;;;7.10;;
65202;SDS011;51788;45.124;38.966;2023-04-24T07:14:50;11.63;;;4.93;;
65202;SDS011;51788;45.124;38.966;2023-04-24T07:17:16;5.40;;;4.97;;
65202;SDS011;51788;45.124;38.966;2023-04-24T07:19:42;7.97;;;5.95;;
65202;SDS011;51788;45.124;38.966;2023-04-24T07:22:08;8.23;;;5.50;;
65202;SDS011;51788;45.124;38.966;2023-04-24T07:24:34;23.50;;;6.32;;
65202;SDS011;51788;45.124;38.966;2023-04-24T07:27:00;16.70;;;6.05;;
65202;SDS011;51788;45.124;38.966;2023-04-24T07:29:29;10.52;;;5.38;;
65202;SDS011;51788;45.124;38.966;2023-04-24T07:31:55;10.20;;;5.18;;
65202;SDS011;51788;45.124;38.966;2023-04-24T07:34:21;7.40;;;5.45;;
65202;SDS011;51788;45.124;38.966;2023-04-24T07:36:47;5.47;;;4.93;;
65202;SDS011;51788;45.124;38.966;2023-04-24T07:39:13;10.13;;;5.60;;
65202;SDS011;51788;45.124;38.966;2023-04-24T07:41:39;7.05;;;4.03;;
65202;SDS011;51788;45.124;38.966;2023-04-24T07:44:05;9.80;;;5.88;;
65202;SDS011;51788;45.124;38.966;2023-04-24T07:46:31;7.07;;;5.07;;
65202;SDS011;51788;45.124;38.966;2023-04-24T07:48:57;5.97;;;4.60;;
65202;SDS011;51788;45.124;38.966;2023-04-24T07:51:24;11.88;;;5.40;;
65202;SDS011;51788;45.124;38.966;2023-04-24T07:53:52;10.25;;;5.25;;
65202;SDS011;51788;45.124;38.966;2023-04-24T07:56:20;12.35;;;5.78;;
65202;SDS011;51788;45.124;38.966;2023-04-24T07:58:46;11.43;;;4.60;;
65202;SDS011;51788;45.124;38.966;2023-04-24T08:01:12;14.15;;;5.53;;
65202;SDS011;51788;45.124;38.966;2023-04-24T08:03:38;6.60;;;5.25;;
65202;SDS011;51788;45.124;38.966;2023-04-24T08:06:04;9.68;;;5.30;;
65202;SDS011;51788;45.124;38.966;2023-04-24T08:08:30;8.15;;;4.95;;
65202;SDS011;51788;45.124;38.966;2023-04-24T08:10:56;8.77;;;4.97;;
65202;SDS011;51788;45.124;38.966;2023-04-24T08:13:22;18.23;;;5.50;;
65202;SDS011;51788;45.124;38.966;2023-04-24T08:15:48;8.68;;;4.70;;
65202;SDS011;51788;45.124;38.966;2023-04-24T08:18:14;5.75;;;4.97;;
65202;SDS011;51788;45.124;38.966;2023-04-24T08:20:41;9.65;;;5.65;;
65202;SDS011;51788;45.124;38.966;2023-04-24T08:23:07;8.20;;;5.00;;
65202;SDS011;51788;45.124;38.966;2023-04-24T08:25:33;8.20;;;5.38;;
65202;SDS011;51788;45.124;38.966;2023-04-24T08:28:01;6.80;;;5.63;;
65202;SDS011;51788;45.124;38.966;2023-04-24T08:30:29;9.35;;;5.32;;
65202;SDS011;51788;45.124;38.966;2023-04-24T08:32:55;13.65;;;5.97;;
65202;SDS011;51788;45.124;38.966;2023-04-24T08:35:21;4.82;;;4.45;;
65202;SDS011;51788;45.124;38.966;2023-04-24T08:37:48;7.18;;;5.35;;
65202;SDS011;51788;45.124;38.966;2023-04-24T08:40:14;5.38;;;4.88;;
65202;SDS011;51788;45.124;38.966;2023-04-24T08:42:42;6.65;;;5.38;;
65202;SDS011;51788;45.124;38.966;2023-04-24T08:45:09;5.80;;;4.40;;
65202;SDS011;51788;45.124;38.966;2023-04-24T08:47:37;8.98;;;6.30;;
65202;SDS011;51788;45.124;38.966;2023-04-24T08:50:05;10.30;;;6.28;;
65202;SDS011;51788;45.124;38.966;2023-04-24T08:52:32;6.90;;;6.18;;
65202;SDS011;51788;45.124;38.966;2023-04-24T08:55:00;9.93;;;6.18;;
65202;SDS011;51788;45.124;38.966;2023-04-24T08:57:26;10.65;;;6.22;;
65202;SDS011;51788;45.124;38.966;2023-04-24T08:59:53;15.15;;;7.15;;
65202;SDS011;51788;45.124;38.966;2023-04-24T09:02:21;22.40;;;7.07;;
65202;SDS011;51788;45.124;38.966;2023-04-24T09:04:49;8.38;;;6.75;;
65202;SDS011;51788;45.124;38.966;2023-04-24T09:07:16;13.73;;;8.05;;
65202;SDS011;51788;45.124;38.966;2023-04-24T09:09:43;22.83;;;10.57;;
65202;SDS011;51788;45.124;38.966;2023-04-24T09:12:09;21.88;;;12.82;;
65202;SDS011;51788;45.124;38.966;2023-04-24T09:14:36;17.98;;;11.55;;
65202;SDS011;51788;45.124;38.966;2023-04-24T09:17:05;21.35;;;11.05;;
65202;SDS011;51788;45.124;38.966;2023-04-24T09:19:32;14.80;;;11.60;;
65202;SDS011;51788;45.124;38.966;2023-04-24T09:21:57;14.25;;;11.27;;
65202;SDS011;51788;45.124;38.966;2023-04-24T09:24:23;18.10;;;12.13;;
65202;SDS011;51788;45.124;38.966;2023-04-24T09:26:58;16.83;;;11.95;;
65202;SDS011;51788;45.124;38.966;2023-04-24T09:29:26;20.15;;;11.65;;
65202;SDS011;51788;45.124;38.966;2023-04-24T09:31:53;22.25;;;12.80;;
65202;SDS011;51788;45.124;38.966;2023-04-24T09:34:23;21.50;;;11.82;;
65202;SDS011;51788;45.124;38.966;2023-04-24T09:36:51;16.48;;;11.50;;
65202;SDS011;51788;45.124;38.966;2023-04-24T09:39:18;16.05;;;11.50;;
65202;SDS011;51788;45.124;38.966;2023-04-24T09:41:49;17.90;;;12.18;;
65202;SDS011;51788;45.124;38.966;2023-04-24T09:44:21;16.42;;;12.02;;
65202;SDS011;51788;45.124;38.966;2023-04-24T09:46:50;19.17;;;12.18;;
65202;SDS011;51788;45.124;38.966;2023-04-24T09:49:29;17.27;;;11.98;;
65202;SDS011;51788;45.124;38.966;2023-04-24T09:52:10;21.38;;;12.38;;
65202;SDS011;51788;45.124;38.966;2023-04-24T09:54:37;22.13;;;12.40;;
65202;SDS011;51788;45.124;38.966;2023-04-24T09:57:08;19.15;;;11.50;;
65202;SDS011;51788;45.124;38.966;2023-04-24T09:59:34;14.65;;;12.30;;
65202;SDS011;51788;45.124;38.966;2023-04-24T10:02:00;19.52;;;13.32;;
65202;SDS011;51788;45.124;38.966;2023-04-24T10:04:27;20.05;;;12.30;;
65202;SDS011;51788;45.124;38.966;2023-04-24T10:06:55;21.77;;;13.13;;
65202;SDS011;51788;45.124;38.966;2023-04-24T10:09:25;22.23;;;13.57;;
65202;SDS011;51788;45.124;38.966;2023-04-24T10:11:52;25.17;;;14.75;;
65202;SDS011;51788;45.124;38.966;2023-04-24T10:14:20;20.83;;;14.23;;
65202;SDS011;51788;45.124;38.966;2023-04-24T10:16:52;24.40;;;13.33;;
65202;SDS011;51788;45.124;38.966;2023-04-24T10:19:19;17.95;;;12.25;;
65202;SDS011;51788;45.124;38.966;2023-04-24T10:21:45;22.80;;;12.98;;
65202;SDS011;51788;45.124;38.966;2023-04-24T10:24:18;14.65;;;12.18;;
65202;SDS011;51788;45.124;38.966;2023-04-24T10:26:47;20.45;;;12.98;;
65202;SDS011;51788;45.124;38.966;2023-04-24T10:29:14;15.90;;;13.23;;
65202;SDS011;51788;45.124;38.966;2023-04-24T10:31:43;13.32;;;11.93;;
65202;SDS011;51788;45.124;38.966;2023-04-24T10:34:12;16.88;;;13.10;;
65202;SDS011;51788;45.124;38.966;2023-04-24T10:37:14;21.42;;;11.38;;
65202;SDS011;51788;45.124;38.966;2023-04-24T10:39:33;17.67;;;11.65;;
65202;SDS011;51788;45.124;38.966;2023-04-24T10:42:00;16.38;;;11.57;;
65202;SDS011;51788;45.124;38.966;2023-04-24T10:44:27;15.43;;;12.18;;
65202;SDS011;51788;45.124;38.966;2023-04-24T10:47:02;21.23;;;12.82;;
65202;SDS011;51788;45.124;38.966;2023-04-24T10:49:28;19.95;;;14.90;;
65202;SDS011;51788;45.124;38.966;2023-04-24T10:51:59;18.13;;;13.60;;
65202;SDS011;51788;45.124;38.966;2023-04-24T10:54:28;40.80;;;12.93;;
65202;SDS011;51788;45.124;38.966;2023-04-24T10:59:46;15.50;;;12.52;;
65202;SDS011;51788;45.124;38.966;2023-04-24T11:02:16;19.00;;;13.13;;
65202;SDS011;51788;45.124;38.966;2023-04-24T11:04:44;24.77;;;15.77;;
65202;SDS011;51788;45.124;38.966;2023-04-24T11:07:10;22.00;;;14.10;;
65202;SDS011;51788;45.124;38.966;2023-04-24T11:09:37;18.02;;;12.50;;
65202;SDS011;51788;45.124;38.966;2023-04-24T11:12:06;15.65;;;12.35;;
65202;SDS011;51788;45.124;38.966;2023-04-24T11:17:36;19.80;;;12.88;;
65202;SDS011;51788;45.124;38.966;2023-04-24T11:20:06;14.32;;;11.00;;
65202;SDS011;51788;45.124;38.966;2023-04-24T11:22:37;25.58;;;12.32;;
65202;SDS011;51788;45.124;38.966;2023-04-24T11:25:05;26.05;;;12.20;;
65202;SDS011;51788;45.124;38.966;2023-04-24T11:27:38;19.80;;;12.43;;
65202;SDS011;51788;45.124;38.966;2023-04-24T11:30:05;20.45;;;11.50;;
65202;SDS011;51788;45.124;38.966;2023-04-24T11:37:33;18.98;;;12.60;;
65202;SDS011;51788;45.124;38.966;2023-04-24T11:40:01;19.65;;;13.00;;
65202;SDS011;51788;45.124;38.966;2023-04-24T11:42:33;19.38;;;12.68;;
65202;SDS011;51788;45.124;38.966;2023-04-24T11:45:00;19.75;;;12.55;;
65202;SDS011;51788;45.124;38.966;2023-04-24T11:47:30;22.30;;;13.48;;
65202;SDS011;51788;45.124;38.966;2023-04-24T11:49:59;21.58;;;13.18;;
65202;SDS011;51788;45.124;38.966;2023-04-24T11:52:26;25.95;;;13.10;;
65202;SDS011;51788;45.124;38.966;2023-04-24T11:54:52;18.67;;;13.68;;
65202;SDS011;51788;45.124;38.966;2023-04-24T11:57:19;16.80;;;12.77;;
65202;SDS011;51788;45.124;38.966;2023-04-24T11:59:46;19.52;;;13.73;;
65202;SDS011;51788;45.124;38.966;2023-04-24T12:02:21;21.98;;;13.48;;
65202;SDS011;51788;45.124;38.966;2023-04-24T12:04:48;25.75;;;19.50;;
65202;SDS011;51788;45.124;38.966;2023-04-24T12:07:15;22.00;;;16.98;;
65202;SDS011;51788;45.124;38.966;2023-04-24T12:09:44;26.45;;;15.80;;
65202;SDS011;51788;45.124;38.966;2023-04-24T12:12:11;22.10;;;15.18;;
65202;SDS011;51788;45.124;38.966;2023-04-24T12:14:48;19.85;;;13.20;;
65202;SDS011;51788;45.124;38.966;2023-04-24T12:17:16;23.17;;;13.63;;
65202;SDS011;51788;45.124;38.966;2023-04-24T12:19:46;26.25;;;14.57;;
65202;SDS011;51788;45.124;38.966;2023-04-24T12:22:13;22.58;;;14.35;;
65202;SDS011;51788;45.124;38.966;2023-04-24T12:24:58;19.17;;;14.27;;
65202;SDS011;51788;45.124;38.966;2023-04-24T12:27:28;22.42;;;13.75;;
65202;SDS011;51788;45.124;38.966;2023-04-24T12:29:58;21.23;;;15.25;;
65202;SDS011;51788;45.124;38.966;2023-04-24T12:32:25;18.95;;;14.27;;
65202;SDS011;51788;45.124;38.966;2023-04-24T12:34:52;22.27;;;13.75;;
65202;SDS011;51788;45.124;38.966;2023-04-24T12:37:19;22.27;;;14.45;;
65202;SDS011;51788;45.124;38.966;2023-04-24T12:39:58;24.50;;;14.50;;
65202;SDS011;51788;45.124;38.966;2023-04-24T12:42:29;19.40;;;13.55;;
65202;SDS011;51788;45.124;38.966;2023-04-24T12:44:56;21.27;;;13.50;;
65202;SDS011;51788;45.124;38.966;2023-04-24T12:47:27;21.63;;;13.73;;
65202;SDS011;51788;45.124;38.966;2023-04-24T12:49:53;30.65;;;14.73;;
65202;SDS011;51788;45.124;38.966;2023-04-24T12:52:21;20.95;;;14.25;;
65202;SDS011;51788;45.124;38.966;2023-04-24T12:54:49;20.00;;;14.70;;
65202;SDS011;51788;45.124;38.966;2023-04-24T12:57:16;19.27;;;13.88;;
65202;SDS011;51788;45.124;38.966;2023-04-24T12:59:43;20.88;;;14.70;;
65202;SDS011;51788;45.124;38.966;2023-04-24T13:02:09;25.25;;;13.68;;
65202;SDS011;51788;45.124;38.966;2023-04-24T13:04:36;19.50;;;14.20;;
65202;SDS011;51788;45.124;38.966;2023-04-24T13:07:02;26.10;;;14.98;;
65202;SDS011;51788;45.124;38.966;2023-04-24T13:09:28;30.45;;;15.48;;
65202;SDS011;51788;45.124;38.966;2023-04-24T13:11:55;27.67;;;15.15;;
65202;SDS011;51788;45.124;38.966;2023-04-24T13:14:22;27.20;;;14.90;;
65202;SDS011;51788;45.124;38.966;2023-04-24T13:16:49;17.92;;;14.00;;
65202;SDS011;51788;45.124;38.966;2023-04-24T13:19:15;21.50;;;14.23;;
65202;SDS011;51788;45.124;38.966;2023-04-24T13:21:41;22.55;;;15.68;;
65202;SDS011;51788;45.124;38.966;2023-04-24T13:24:06;26.55;;;15.55;;
65202;SDS011;51788;45.124;38.966;2023-04-24T13:26:33;23.48;;;15.35;;
65202;SDS011;51788;45.124;38.966;2023-04-24T13:28:59;29.83;;;16.02;;
65202;SDS011;51788;45.124;38.966;2023-04-24T13:31:25;24.80;;;15.25;;
65202;SDS011;51788;45.124;38.966;2023-04-24T13:33:51;27.40;;;15.77;;
65202;SDS011;51788;45.124;38.966;2023-04-24T13:36:17;29.25;;;16.15;;
65202;SDS011;51788;45.124;38.966;2023-04-24T13:38:44;32.38;;;17.35;;
65202;SDS011;51788;45.124;38.966;2023-04-24T13:41:10;24.05;;;15.55;;
65202;SDS011;51788;45.124;38.966;2023-04-24T13:43:36;21.38;;;16.83;;
65202;SDS011;51788;45.124;38.966;2023-04-24T13:46:02;27.17;;;18.35;;
65202;SDS011;51788;45.124;38.966;2023-04-24T13:48:28;26.95;;;19.25;;
65202;SDS011;51788;45.124;38.966;2023-04-24T13:50:55;30.83;;;21.90;;
65202;SDS011;51788;45.124;38.966;2023-04-24T13:53:21;29.17;;;17.42;;
65202;SDS011;51788;45.124;38.966;2023-04-24T13:55:47;36.72;;;17.23;;
65202;SDS011;51788;45.124;38.966;2023-04-24T13:58:13;27.48;;;18.05;;
65202;SDS011;51788;45.124;38.966;2023-04-24T14:00:40;27.80;;;16.55;;
65202;SDS011;51788;45.124;38.966;2023-04-24T14:03:06;31.50;;;15.73;;
65202;SDS011;51788;45.124;38.966;2023-04-24T14:05:32;21.60;;;16.52;;
65202;SDS011;51788;45.124;38.966;2023-04-24T14:07:58;28.10;;;16.30;;
65202;SDS011;51788;45.124;38.966;2023-04-24T14:10:24;21.33;;;15.35;;
65202;SDS011;51788;45.124;38.966;2023-04-24T14:12:50;22.38;;;15.55;;
65202;SDS011;51788;45.124;38.966;2023-04-24T14:15:17;23.63;;;16.17;;
65202;SDS011;51788;45.124;38.966;2023-04-24T14:17:43;25.02;;;16.65;;
65202;SDS011;51788;45.124;38.966;2023-04-24T14:20:09;25.60;;;17.33;;
65202;SDS011;51788;45.124;38.966;2023-04-24T14:22:35;22.77;;;16.83;;
65202;SDS011;51788;45.124;38.966;2023-04-24T14:25:01;28.80;;;16.50;;
65202;SDS011;51788;45.124;38.966;2023-04-24T14:27:28;21.20;;;16.13;;
65202;SDS011;51788;45.124;38.966;2023-04-24T14:29:55;28.95;;;16.05;;
65202;SDS011;51788;45.124;38.966;2023-04-24T14:32:21;26.85;;;15.93;;
65202;SDS011;51788;45.124;38.966;2023-04-24T14:34:47;25.10;;;15.25;;